Time;durP1;ratioP1;P1;durP2;ratioP2;P2;SDS_P1;SDS_P2;PMS_P1;PMS_P2;Temp;Humidity;BMP_temperature;BMP_pressure;BME280_temperature;BME280_humidity;BME280_pressure;Samples;Min_cycle;Max_cycle;Signal;HPM_P1;HPM_P2
2022/10/08 00:00:58;;;;;;;10.63;1.80;;;;;;;19.91;40.89;101499.16;4995513;28;20041;-63
2022/10/08 00:03:25;;;;;;;8.13;1.85;;;;;;;19.90;40.84;101502.94;4995903;28;20116;-63
2022/10/08 00:06:18;;;;;;;4.72;1.25;;;;;;;19.88;41.39;101494.06;5011951;28;20025;-63
2022/10/08 00:08:48;;;;;;;;;;;;;;;19.87;40.84;101499.69;4994316;28;20407;-63
2022/10/08 00:11:15;;;;;;;8.40;1.38;;;;;;;19.86;41.07;101498.00;4995583;28;19910;-63
2022/10/08 00:13:43;;;;;;;6.50;1.20;;;;;;;19.84;40.88;101492.75;4995664;28;20503;-63
2022/10/08 00:16:11;;;;;;;5.40;1.40;;;;;;;19.82;41.11;101502.91;4995552;28;20026;-63
2022/10/08 00:18:38;;;;;;;3.70;1.17;;;;;;;19.81;40.66;101498.53;5011949;28;20501;-63
2022/10/08 00:21:05;;;;;;;7.32;1.40;;;;;;;19.77;41.08;101492.56;5013117;28;20109;-63
2022/10/08 00:23:32;;;;;;;8.45;1.75;;;;;;;19.74;40.96;101489.34;4995792;28;20523;-63
2022/10/08 00:26:02;;;;;;;11.40;1.45;;;;;;;19.75;41.17;101493.78;4979281;28;20503;-62
2022/10/08 00:28:27;;;;;;;10.38;2.15;;;;;;;19.73;41.42;101485.81;5014464;28;20100;-62
2022/10/08 00:30:52;;;;;;;2.28;1.23;;;;;;;19.75;41.65;101491.06;5016575;28;20086;-63
2022/10/08 00:33:18;;;;;;;4.90;1.63;;;;;;;19.73;41.37;101487.66;4982493;28;20459;-62
2022/10/08 00:35:43;;;;;;;6.22;1.27;;;;;;;19.69;41.29;101486.31;5014594;28;20026;-62
2022/10/08 00:38:08;;;;;;;3.92;1.13;;;;;;;19.72;41.41;101478.66;4998795;28;20026;-62
2022/10/08 00:40:43;;;;;;;4.88;1.63;;;;;;;19.70;41.46;101468.97;5016470;28;20030;-62
2022/10/08 00:43:13;;;;;;;2.67;1.35;;;;;;;19.73;41.19;101474.06;4998779;28;20112;-62
2022/10/08 00:45:39;;;;;;;4.13;1.55;;;;;;;19.73;41.39;101474.06;4998799;28;20164;-62
2022/10/08 00:48:04;;;;;;;6.10;1.63;;;;;;;19.74;41.80;101478.47;4982464;28;20129;-62
2022/10/08 00:50:33;;;;;;;4.38;1.60;;;;;;;19.73;41.65;101472.22;4998647;28;20037;-62
2022/10/08 00:53:06;;;;;;;6.47;1.60;;;;;;;19.76;41.94;101477.28;5015114;28;20030;-62
2022/10/08 00:55:32;;;;;;;5.60;1.33;;;;;;;19.76;41.51;101466.41;5014964;28;20390;-62
2022/10/08 00:58:02;;;;;;;3.13;1.35;;;;;;;19.78;41.53;101468.97;4982319;28;20125;-62
2022/10/08 01:00:29;;;;;;;5.55;1.20;;;;;;;19.81;41.49;101474.06;5014861;28;20488;-62
2022/10/08 01:02:55;;;;;;;6.10;1.20;;;;;;;19.83;41.33;101476.59;5014802;28;20022;-62
2022/10/08 01:05:38;;;;;;;8.52;1.98;;;;;;;19.84;41.68;101476.44;5014811;28;20029;-62
2022/10/08 01:08:15;;;;;;;;;;;;;;;19.82;41.52;101470.28;5015142;28;20026;-62
2022/10/08 01:10:43;;;;;;;2.88;0.88;;;;;;;19.81;41.58;101474.06;5014615;28;19959;-62
2022/10/08 01:13:23;;;;;;;4.25;1.35;;;;;;;19.80;41.99;101466.91;5022699;28;20060;-62
2022/10/08 01:16:00;;;;;;;6.20;1.00;;;;;;;19.79;41.98;101470.66;5018089;28;20021;-62
2022/10/08 01:19:16;;;;;;;9.45;1.52;;;;;;;19.77;41.36;101472.69;5035449;28;20033;-62
2022/10/08 01:21:48;;;;;;;7.55;1.27;;;;;;;19.75;41.71;101464.72;4993026;28;20044;-62
2022/10/08 01:25:31;;;;;;;3.65;1.13;;;;;;;19.73;41.32;101464.06;5001299;28;20041;-63
2022/10/08 01:27:38;;;;;;;4.93;1.92;;;;;;;19.73;41.71;101465.91;5035097;28;20036;-62
2022/10/08 01:30:06;;;;;;;7.75;1.35;;;;;;;19.74;42.02;101470.31;5035210;28;20498;-62
2022/10/08 01:32:45;;;;;;;5.63;1.30;;;;;;;19.76;42.13;101471.00;5017976;28;20029;-62
2022/10/08 01:35:18;;;;;;;5.60;0.85;;;;;;;19.77;42.01;101467.25;5018073;28;20120;-62
2022/10/08 01:37:44;;;;;;;4.82;1.23;;;;;;;19.81;42.08;101462.31;5020763;28;20021;-62
2022/10/08 01:40:18;;;;;;;3.78;1.33;;;;;;;19.79;41.97;101457.06;5019905;28;20033;-62
2022/10/08 01:42:43;;;;;;;2.85;1.00;;;;;;;19.82;42.06;101456.69;5037180;28;20025;-62
2022/10/08 01:45:23;;;;;;;3.90;1.17;;;;;;;19.85;41.81;101458.25;5020889;28;20032;-62
2022/10/08 01:47:50;;;;;;;6.93;0.90;;;;;;;19.85;42.08;101463.69;5037054;28;20052;-62
2022/10/08 01:50:27;;;;;;;7.70;1.27;;;;;;;19.88;42.29;101458.72;5037055;28;20021;-63
2022/10/08 01:52:59;;;;;;;6.88;1.20;;;;;;;19.90;42.32;101461.28;5037538;28;20035;-62
2022/10/08 01:55:31;;;;;;;3.38;1.05;;;;;;;19.96;42.77;101455.97;5036872;28;20029;-63
2022/10/08 01:58:03;;;;;;;2.45;1.00;;;;;;;19.96;41.96;101453.25;5036877;28;20397;-63
2022/10/08 02:00:31;;;;;;;4.68;0.80;;;;;;;20.02;42.21;101455.28;5020247;28;20036;-62
2022/10/08 02:02:56;;;;;;;4.88;1.25;;;;;;;20.05;42.47;101454.94;5054504;28;20082;-62
2022/10/08 02:05:22;;;;;;;7.25;1.15;;;;;;;20.09;42.78;101453.56;5036687;28;20037;-62
2022/10/08 02:07:48;;;;;;;3.75;0.77;;;;;;;20.11;42.36;101450.66;5036733;28;20060;-62
2022/10/08 02:10:22;;;;;;;3.53;0.85;;;;;;;20.15;42.52;101450.16;5020480;28;20055;-62
2022/10/08 02:12:48;;;;;;;5.95;1.50;;;;;;;20.15;42.42;101447.44;5019928;28;20021;-62
2022/10/08 02:15:18;;;;;;;4.53;1.27;;;;;;;20.19;42.52;101442.47;5036460;28;20025;-62
2022/10/08 02:18:13;;;;;;;1.80;0.70;;;;;;;20.22;42.70;101444.84;5019901;28;20107;-62
2022/10/08 02:20:49;;;;;;;5.07;1.20;;;;;;;20.24;43.36;101446.38;5019993;28;20028;-63
2022/10/08 02:23:37;;;;;;;3.55;1.17;;;;;;;20.29;42.86;101448.59;5036369;28;20067;-62
2022/10/08 02:26:20;;;;;;;6.47;2.00;;;;;;;20.30;42.37;101453.84;5036258;28;20052;-62
2022/10/08 02:28:50;;;;;;;4.53;1.17;;;;;;;20.35;42.78;101444.31;5019776;28;20032;-62
2022/10/08 02:31:30;;;;;;;4.70;0.93;;;;;;;20.40;42.84;101444.63;5036091;28;20493;-62
2022/10/08 02:34:01;;;;;;;3.13;0.60;;;;;;;20.43;42.87;101455.16;5036261;28;20108;-62
2022/10/08 02:36:30;;;;;;;5.43;1.30;;;;;;;20.45;42.52;101462.13;5036099;28;20017;-62
2022/10/08 02:38:58;;;;;;;4.93;1.15;;;;;;;20.45;43.05;101456.69;5019544;28;20025;-62
2022/10/08 02:41:31;;;;;;;5.95;1.20;;;;;;;20.48;43.39;101460.91;5019440;28;20036;-62
2022/10/08 02:43:58;;;;;;;10.02;1.50;;;;;;;20.50;43.38;101465.16;5036050;28;20477;-62
2022/10/08 02:46:27;;;;;;;3.83;1.02;;;;;;;20.52;42.82;101456.81;5035934;28;20025;-62
2022/10/08 02:49:01;;;;;;;3.72;0.98;;;;;;;20.57;43.22;101465.31;5019519;28;20466;-62
2022/10/08 02:51:28;;;;;;;1.92;1.00;;;;;;;20.58;43.00;101461.53;5053465;28;20433;-62
2022/10/08 02:53:54;;;;;;;2.80;1.00;;;;;;;20.61;42.57;101458.44;5035786;28;20116;-62
2022/10/08 02:56:24;;;;;;;3.92;0.98;;;;;;;20.64;42.72;101466.25;5019212;28;20456;-62
2022/10/08 02:58:50;;;;;;;4.03;0.85;;;;;;;20.63;43.50;101461.88;5035858;28;20055;-62
2022/10/08 03:01:18;;;;;;;2.72;1.15;;;;;;;20.69;43.08;101475.59;5035979;28;20025;-62
2022/10/08 03:03:52;;;;;;;9.43;1.33;;;;;;;20.64;43.23;101478.00;5035629;28;20063;-62
2022/10/08 03:06:18;;;;;;;4.80;0.98;;;;;;;20.58;43.86;101484.16;5035778;28;20040;-63
2022/10/08 03:08:47;;;;;;;5.00;1.10;;;;;;;20.49;43.28;101490.66;5035782;28;20020;-63
2022/10/08 03:11:14;;;;;;;3.85;1.23;;;;;;;20.38;44.07;101488.34;5035899;28;20052;-63
2022/10/08 03:13:42;;;;;;;6.20;0.95;;;;;;;20.30;44.70;101481.06;5019114;28;20132;-63
2022/10/08 03:16:10;;;;;;;4.93;1.48;;;;;;;20.30;44.46;101497.38;5035586;28;20024;-63
2022/10/08 03:18:36;;;;;;;11.90;1.70;;;;;;;20.25;44.18;101494.34;5035503;28;20025;-63
2022/10/08 03:21:02;;;;;;;2.78;1.38;;;;;;;20.25;44.86;101504.38;5019033;28;20067;-63
2022/10/08 03:23:27;;;;;;;6.57;0.95;;;;;;;20.20;44.75;101502.16;5018809;28;20033;-65
2022/10/08 03:25:53;;;;;;;3.92;0.82;;;;;;;20.20;44.61;101502.16;5018878;28;20037;-63
2022/10/08 03:28:18;;;;;;;6.60;1.48;;;;;;;20.17;44.26;101498.94;5019135;28;20131;-63
2022/10/08 03:30:45;;;;;;;6.05;1.10;;;;;;;20.20;44.84;101507.59;5035538;28;20021;-63
2022/10/08 03:33:10;;;;;;;7.22;1.13;;;;;;;20.17;45.19;101510.69;5035316;28;20406;-63
2022/10/08 03:35:35;;;;;;;4.90;1.13;;;;;;;20.19;45.50;101522.22;5053082;28;20020;-63
2022/10/08 03:38:01;;;;;;;2.65;1.10;;;;;;;20.16;44.98;101517.13;5035444;28;20170;-63
2022/10/08 03:40:26;;;;;;;6.00;1.45;;;;;;;20.14;45.64;101524.63;5035188;28;20481;-63
2022/10/08 03:42:52;;;;;;;7.38;1.13;;;;;;;20.09;45.69;101521.59;5018772;28;20076;-63
2022/10/08 03:45:17;;;;;;;2.22;1.05;;;;;;;20.14;45.55;101521.91;5018835;28;20406;-62
2022/10/08 03:47:42;;;;;;;2.05;1.08;;;;;;;20.12;44.75;101532.13;5018594;28;20073;-62
2022/10/08 03:50:08;;;;;;;3.58;1.25;;;;;;;20.14;45.42;101532.78;5052969;28;20394;-62
2022/10/08 03:52:33;;;;;;;3.30;1.27;;;;;;;20.15;45.67;101526.34;5035036;28;20166;-62
2022/10/08 03:54:59;;;;;;;3.63;1.20;;;;;;;20.16;46.05;101528.00;5018402;28;20049;-63
2022/10/08 03:57:24;;;;;;;7.65;1.70;;;;;;;20.15;45.74;101537.22;5035023;28;20032;-62
2022/10/08 03:59:49;;;;;;;2.63;1.15;;;;;;;20.16;46.21;101533.44;5035158;28;20025;-62
2022/10/08 04:02:15;;;;;;;5.60;1.17;;;;;;;20.17;46.03;101535.16;5053270;28;20033;-64
2022/10/08 04:04:40;;;;;;;3.13;0.95;;;;;;;20.19;46.09;101541.28;5056810;28;20033;-63
2022/10/08 04:07:05;;;;;;;2.80;1.65;;;;;;;20.17;46.37;101532.44;5022365;28;20025;-63
2022/10/08 04:09:31;;;;;;;8.15;0.93;;;;;;;20.17;46.56;101540.59;5038947;28;20023;-64
2022/10/08 04:11:56;;;;;;;3.17;0.77;;;;;;;20.19;46.39;101543.13;5006114;28;20036;-64
2022/10/08 04:14:21;;;;;;;6.20;1.48;;;;;;;20.20;46.09;101542.97;5022051;28;20048;-64
2022/10/08 04:16:47;;;;;;;4.53;0.98;;;;;;;20.17;46.29;101546.03;5038652;28;20025;-62
2022/10/08 04:19:13;;;;;;;5.55;0.70;;;;;;;20.20;46.44;101539.41;5005896;28;20040;-63
2022/10/08 04:21:38;;;;;;;1.50;0.68;;;;;;;20.21;46.63;101541.13;5056490;28;20029;-63
2022/10/08 04:24:04;;;;;;;8.23;1.15;;;;;;;20.23;46.03;101539.91;5022056;28;20115;-63
2022/10/08 04:26:29;;;;;;;1.77;0.85;;;;;;;20.22;46.55;101538.19;5021931;28;20086;-63
2022/10/08 04:28:55;;;;;;;2.53;1.17;;;;;;;20.21;46.47;101547.38;5038508;28;20029;-63
2022/10/08 04:31:22;;;;;;;0.98;0.80;;;;;;;20.21;46.72;101546.56;5038572;28;20029;-63
2022/10/08 04:33:48;;;;;;;1.75;0.93;;;;;;;20.18;46.60;101547.72;5022157;28;20402;-63
2022/10/08 04:36:16;;;;;;;2.58;1.42;;;;;;;20.21;46.57;101536.50;5021942;28;20025;-63
2022/10/08 04:38:42;;;;;;;2.88;1.95;;;;;;;20.18;46.98;101546.91;5021789;28;20482;-63
2022/10/08 04:41:19;;;;;;;0.90;0.80;;;;;;;20.15;47.08;101536.38;5021731;28;20021;-63
2022/10/08 04:43:45;;;;;;;1.70;0.90;;;;;;;20.17;46.76;101540.59;5038161;28;20104;-63
2022/10/08 04:46:13;;;;;;;1.15;0.80;;;;;;;20.15;46.59;101537.22;5021565;28;20025;-63
2022/10/08 04:48:39;;;;;;;2.35;1.10;;;;;;;20.13;46.33;101528.34;5021648;28;20040;-63
2022/10/08 04:51:05;;;;;;;3.15;1.23;;;;;;;20.14;47.06;101538.22;5038233;28;20021;-63
2022/10/08 04:53:31;;;;;;;3.15;1.13;;;;;;;20.13;46.92;101555.56;5038151;28;20021;-63
2022/10/08 04:55:56;;;;;;;2.72;1.20;;;;;;;20.12;47.03;101548.44;5055882;28;20074;-62
2022/10/08 04:58:24;;;;;;;4.38;1.33;;;;;;;20.11;47.11;101549.44;5021514;28;20568;-63
2022/10/08 05:00:49;;;;;;;6.53;1.80;;;;;;;20.11;46.77;101557.63;5038128;28;20056;-63
2022/10/08 05:03:14;;;;;;;9.95;1.77;;;;;;;20.10;46.72;101557.81;5021631;28;20053;-63
2022/10/08 05:05:41;;;;;;;11.00;1.45;;;;;;;20.08;47.33;101555.25;5055669;28;20043;-63
2022/10/08 05:08:06;;;;;;;4.78;1.17;;;;;;;20.13;47.40;101565.59;5037815;28;20032;-63
2022/10/08 05:10:32;;;;;;;5.45;1.80;;;;;;;20.12;46.62;101566.63;5021313;28;20444;-63
2022/10/08 05:12:57;;;;;;;5.30;1.20;;;;;;;20.12;47.05;101563.91;5034225;28;20049;-63
2022/10/08 05:15:23;;;;;;;5.22;1.50;;;;;;;20.12;47.25;101567.47;5017896;28;20027;-63
2022/10/08 05:17:48;;;;;;;9.80;2.15;;;;;;;20.15;46.88;101577.16;5017906;28;20022;-63
2022/10/08 05:20:14;;;;;;;5.05;1.73;;;;;;;20.14;47.19;101572.75;5017980;28;20045;-63
2022/10/08 05:22:39;;;;;;;6.65;1.58;;;;;;;20.15;47.36;101580.75;5017948;28;20029;-63
2022/10/08 05:25:05;;;;;;;10.05;2.33;;;;;;;20.14;47.17;101584.47;5034566;28;20120;-63
2022/10/08 05:27:30;;;;;;;6.55;1.90;;;;;;;20.14;47.38;101589.91;5034365;28;20029;-63
2022/10/08 05:29:56;;;;;;;5.38;1.90;;;;;;;20.14;47.39;101595.34;5035383;28;20026;-62
2022/10/08 05:32:21;;;;;;;11.05;2.08;;;;;;;20.13;47.52;101593.66;5035399;28;20116;-62
2022/10/08 05:34:47;;;;;;;5.90;1.80;;;;;;;20.14;47.65;101600.81;5034014;28;20036;-63
2022/10/08 05:37:12;;;;;;;7.18;2.25;;;;;;;20.14;47.38;101598.09;5034069;28;20033;-62
2022/10/08 05:39:37;;;;;;;2.50;1.60;;;;;;;20.13;47.60;101604.53;5034122;28;20030;-62
2022/10/08 05:42:03;;;;;;;3.55;1.63;;;;;;;20.11;47.52;101603.88;5017434;28;20450;-63
2022/10/08 05:44:28;;;;;;;4.65;2.10;;;;;;;20.11;47.96;101601.13;5033960;28;20025;-63
2022/10/08 05:46:53;;;;;;;8.77;2.13;;;;;;;20.09;47.86;101608.63;5017263;28;20032;-63
2022/10/08 05:49:21;;;;;;;7.97;2.10;;;;;;;20.13;47.79;101623.56;5035096;28;20040;-63
2022/10/08 05:51:48;;;;;;;5.25;2.33;;;;;;;20.13;47.41;101615.41;5001116;28;20029;-62
2022/10/08 05:54:14;;;;;;;5.82;2.58;;;;;;;20.12;48.06;101619.19;5033759;28;20040;-62
2022/10/08 05:56:39;;;;;;;5.07;1.77;;;;;;;20.15;47.44;101613.38;5033783;28;20025;-63
2022/10/08 05:59:05;;;;;;;5.25;2.10;;;;;;;20.13;48.24;101623.56;5033510;28;20043;-64
2022/10/08 06:01:31;;;;;;;4.68;1.92;;;;;;;20.15;47.64;101624.28;5034712;28;20033;-63
2022/10/08 06:03:59;;;;;;;9.75;2.75;;;;;;;20.13;47.99;101631.72;5016885;28;20025;-62
2022/10/08 06:06:25;;;;;;;10.95;2.40;;;;;;;20.19;47.96;101625.63;5016849;28;20112;-62
2022/10/08 06:08:55;;;;;;;7.03;2.05;;;;;;;20.19;47.55;101631.06;5033419;28;20455;-63
2022/10/08 06:11:21;;;;;;;8.10;2.85;;;;;;;20.16;47.43;101636.84;5021217;28;20052;-63
2022/10/08 06:13:46;;;;;;;5.63;2.85;;;;;;;20.18;48.11;101633.97;5006472;28;20465;-63
2022/10/08 06:16:11;;;;;;;5.88;2.50;;;;;;;20.17;47.65;101644.00;5023093;28;20387;-63
2022/10/08 06:18:39;;;;;;;9.18;2.85;;;;;;;20.21;48.16;101647.22;5021495;28;20104;-62
2022/10/08 06:21:09;;;;;;;9.57;3.50;;;;;;;20.22;48.25;101657.94;5007036;28;20022;-62
2022/10/08 06:23:38;;;;;;;10.38;3.30;;;;;;;20.25;48.14;101660.34;5005306;28;20013;-63
2022/10/08 06:26:07;;;;;;;5.07;2.55;;;;;;;20.25;48.00;101662.19;5022156;28;20029;-63
2022/10/08 06:28:34;;;;;;;11.82;3.03;;;;;;;20.29;48.07;101671.75;5020225;28;20053;-63
2022/10/08 06:31:00;;;;;;;6.05;3.00;;;;;;;20.31;48.04;101678.69;5022702;28;20112;-62
2022/10/08 06:33:25;;;;;;;5.72;2.67;;;;;;;20.35;47.66;101676.50;5023212;28;20018;-63
2022/10/08 06:35:51;;;;;;;11.38;3.50;;;;;;;20.38;48.22;101678.84;5022032;28;20380;-62
2022/10/08 06:38:16;;;;;;;13.77;3.58;;;;;;;20.38;48.08;101683.47;4989522;28;20076;-62
2022/10/08 06:40:42;;;;;;;12.30;3.72;;;;;;;20.40;48.08;101692.31;5003686;28;20025;-62
2022/10/08 06:43:25;;;;;;;5.90;3.15;;;;;;;20.45;48.03;101700.78;5020842;28;20080;-63
2022/10/08 06:45:52;;;;;;;10.60;3.25;;;;;;;20.48;48.30;101695.00;5021182;28;20024;-62
2022/10/08 06:48:18;;;;;;;9.32;3.00;;;;;;;20.52;48.01;101712.72;5021133;28;20060;-62
2022/10/08 06:50:44;;;;;;;10.55;3.25;;;;;;;20.54;48.00;101716.09;5022967;28;20097;-63
2022/10/08 06:53:10;;;;;;;10.35;3.80;;;;;;;20.56;48.27;101708.59;5005521;28;20121;-63
2022/10/08 06:55:36;;;;;;;7.68;3.35;;;;;;;20.58;48.37;101720.16;5028058;28;20482;-63
2022/10/08 06:58:02;;;;;;;11.30;3.58;;;;;;;20.59;48.82;101719.16;5006329;28;20056;-62
2022/10/08 07:00:28;;;;;;;9.38;3.35;;;;;;;20.65;47.70;101726.63;5020670;28;20386;-63
2022/10/08 07:02:55;;;;;;;8.05;3.88;;;;;;;20.73;47.87;101723.91;5003896;28;20018;-63
2022/10/08 07:05:21;;;;;;;11.32;3.67;;;;;;;20.76;47.86;101723.56;5020279;28;20030;-63
2022/10/08 07:07:46;;;;;;;7.53;3.47;;;;;;;20.75;47.94;101730.88;5005735;28;20060;-63
2022/10/08 07:10:12;;;;;;;8.98;3.83;;;;;;;20.76;47.87;101737.16;5003180;28;20029;-63
2022/10/08 07:12:37;;;;;;;14.05;5.07;;;;;;;20.88;47.92;101739.34;5013075;28;20430;-63
2022/10/08 07:15:03;;;;;;;12.30;4.50;;;;;;;21.09;47.97;101737.97;4999856;28;20029;-62
2022/10/08 07:17:28;;;;;;;11.82;4.15;;;;;;;21.15;47.79;101749.03;5016083;28;20071;-62
2022/10/08 07:19:55;;;;;;;9.20;4.10;;;;;;;21.29;47.34;101751.00;4999458;28;20124;-63
2022/10/08 07:22:21;;;;;;;7.47;3.67;;;;;;;21.36;47.94;101754.72;5015883;28;20118;-62
2022/10/08 07:24:46;;;;;;;10.80;4.53;;;;;;;21.30;47.40;101752.69;4999501;28;20468;-62
2022/10/08 07:27:12;;;;;;;9.88;4.40;;;;;;;21.34;47.35;101759.50;5015782;28;20061;-62
2022/10/08 07:29:37;;;;;;;6.75;3.95;;;;;;;21.52;47.08;101766.59;5016686;28;20036;-62
2022/10/08 07:32:02;;;;;;;11.38;4.15;;;;;;;21.66;46.97;101768.56;5016247;28;20037;-63
2022/10/08 07:34:28;;;;;;;12.00;4.57;;;;;;;21.89;47.22;101775.78;4983314;28;20029;-63
2022/10/08 07:36:54;;;;;;;9.43;4.00;;;;;;;22.09;46.96;101767.97;4999545;28;20539;-63
2022/10/08 07:39:19;;;;;;;10.80;4.20;;;;;;;22.35;45.84;101771.22;5003504;28;20376;-62
2022/10/08 07:41:45;;;;;;;9.15;4.63;;;;;;;22.56;46.01;101768.63;5003538;28;20060;-63
2022/10/08 07:44:11;;;;;;;10.75;3.63;;;;;;;22.75;45.44;101774.66;5019871;28;20018;-65
2022/10/08 07:46:42;;;;;;;10.05;4.07;;;;;;;22.98;45.84;101769.97;5003158;28;20551;-63
2022/10/08 07:49:07;;;;;;;9.70;3.45;;;;;;;23.27;45.21;101783.66;5031928;28;20032;-64
2022/10/08 07:51:33;;;;;;;9.13;4.63;;;;;;;23.50;45.13;101784.44;5039094;28;20437;-63
2022/10/08 07:53:59;;;;;;;7.07;3.17;;;;;;;23.74;45.05;101786.00;5056976;28;20078;-64
2022/10/08 07:56:24;;;;;;;10.05;3.55;;;;;;;23.94;45.44;101791.69;5022745;28;20028;-64
2022/10/08 07:58:50;;;;;;;7.88;4.07;;;;;;;24.14;45.23;101792.81;5039157;28;20056;-64
2022/10/08 08:01:18;;;;;;;9.02;3.08;;;;;;;24.26;44.95;101803.03;5039018;28;20385;-64
2022/10/08 08:03:44;;;;;;;5.80;3.20;;;;;;;24.51;44.44;101806.22;5039152;28;20473;-64
2022/10/08 08:06:13;;;;;;;7.25;3.00;;;;;;;24.73;44.37;101804.34;5038766;28;20027;-64
2022/10/08 08:08:40;;;;;;;12.38;3.53;;;;;;;24.85;44.19;101809.09;5022414;28;20028;-64
2022/10/08 08:11:07;;;;;;;8.95;3.15;;;;;;;25.03;44.03;101813.25;5054412;28;20398;-64
2022/10/08 08:13:35;;;;;;;10.32;2.58;;;;;;;25.09;43.34;101810.56;5016661;28;20460;-64
2022/10/08 08:16:06;;;;;;;6.63;2.53;;;;;;;25.18;43.51;101808.53;5019084;28;20025;-64
2022/10/08 08:18:34;;;;;;;10.93;3.00;;;;;;;25.20;43.79;101818.25;5018935;28;20022;-64
2022/10/08 08:21:01;;;;;;;6.05;2.50;;;;;;;25.30;43.14;101812.38;5002901;28;20116;-64
2022/10/08 08:23:28;;;;;;;5.28;2.22;;;;;;;25.59;43.21;101812.16;5055271;28;20082;-65
2022/10/08 08:25:54;;;;;;;6.68;1.98;;;;;;;25.78;42.74;101819.66;5055190;28;20028;-65
2022/10/08 08:28:19;;;;;;;9.25;2.75;;;;;;;25.74;42.87;101826.59;5055165;28;20035;-65
2022/10/08 08:30:44;;;;;;;8.52;2.10;;;;;;;25.95;42.55;101834.72;5038440;28;20028;-65
2022/10/08 08:33:10;;;;;;;5.47;1.58;;;;;;;26.05;42.39;101818.69;5038349;28;20032;-64
2022/10/08 08:35:35;;;;;;;5.32;1.73;;;;;;;25.80;42.60;101834.00;5038593;28;20033;-65
2022/10/08 08:38:00;;;;;;;5.10;2.13;;;;;;;25.65;42.71;101838.81;5041964;28;20025;-65
2022/10/08 08:40:27;;;;;;;5.90;1.70;;;;;;;25.48;42.97;101842.94;5056081;28;20036;-64
2022/10/08 08:42:55;;;;;;;5.93;1.77;;;;;;;25.45;42.82;101848.78;5038447;28;20551;-65
2022/10/08 08:45:27;;;;;;;5.88;1.40;;;;;;;25.25;42.97;101850.53;5038315;28;20401;-64
2022/10/08 08:48:06;;;;;;;9.70;2.35;;;;;;;25.05;43.01;101852.28;5021332;28;20025;-64
2022/10/08 08:50:35;;;;;;;10.07;1.77;;;;;;;25.15;42.68;101863.78;5038146;28;20086;-64
2022/10/08 08:53:02;;;;;;;7.10;1.88;;;;;;;24.97;42.83;101860.66;5038080;28;20021;-64
2022/10/08 08:55:33;;;;;;;5.85;1.25;;;;;;;24.77;42.41;101857.72;5038077;28;20071;-64
2022/10/08 08:58:26;;;;;;;4.50;2.00;;;;;;;24.71;42.80;101861.22;5021588;28;20482;-64
2022/10/08 09:01:11;;;;;;;3.53;1.73;;;;;;;25.16;42.12;101854.47;5055732;28;20032;-65
2022/10/08 09:03:42;;;;;;;4.53;1.73;;;;;;;25.56;41.09;101861.97;5037838;28;20025;-64
2022/10/08 09:06:09;;;;;;;9.88;1.55;;;;;;;25.91;41.01;101858.13;5037878;28;20021;-65
2022/10/08 09:08:38;;;;;;;5.53;1.20;;;;;;;26.33;40.44;101864.44;5037807;28;20029;-65
2022/10/08 09:11:04;;;;;;;6.35;0.98;;;;;;;26.13;40.96;101869.03;5037697;28;20031;-65
2022/10/08 09:13:39;;;;;;;7.10;1.25;;;;;;;26.23;40.99;101872.25;5021043;28;20052;-65
2022/10/08 09:16:05;;;;;;;6.25;1.75;;;;;;;26.54;40.38;101883.53;5048286;28;20421;-64
2022/10/08 09:18:30;;;;;;;10.23;1.80;;;;;;;26.76;40.13;101882.31;5021435;28;20025;-64
2022/10/08 09:20:56;;;;;;;5.38;1.50;;;;;;;27.26;39.47;101872.59;5054194;28;20056;-65
2022/10/08 09:23:23;;;;;;;5.13;1.48;;;;;;;27.33;39.50;101878.13;5053980;28;20032;-64
2022/10/08 09:25:58;;;;;;;6.20;1.02;;;;;;;26.88;39.65;101880.66;5037348;28;20021;-65
2022/10/08 09:28:59;;;;;;;7.95;1.25;;;;;;;27.76;38.48;101882.06;5037425;28;20114;-65
2022/10/08 09:31:40;;;;;;;4.60;1.30;;;;;;;28.34;38.15;101893.94;4986183;28;20406;-65
2022/10/08 09:34:12;;;;;;;6.60;1.08;;;;;;;28.23;37.69;101887.22;5055073;28;20104;-65
2022/10/08 09:36:51;;;;;;;6.45;1.15;;;;;;;27.49;39.46;101894.22;5053840;28;20020;-65
2022/10/08 09:39:25;;;;;;;5.85;1.00;;;;;;;26.99;39.52;101904.78;5037209;28;20025;-64
2022/10/08 09:42:05;;;;;;;6.72;1.52;;;;;;;26.52;39.91;101902.97;5053823;28;20028;-64
2022/10/08 09:45:02;;;;;;;4.78;1.23;;;;;;;26.19;39.98;101909.41;5053724;28;20025;-65
2022/10/08 09:47:29;;;;;;;4.45;1.10;;;;;;;26.21;39.56;101910.06;5036165;28;20132;-64
2022/10/08 09:50:01;;;;;;;2.75;1.17;;;;;;;26.12;39.74;101919.50;5053642;28;20029;-65
2022/10/08 09:52:27;;;;;;;5.43;0.88;;;;;;;25.80;40.03;101919.13;5053442;28;20037;-65
2022/10/08 09:54:55;;;;;;;4.85;1.38;;;;;;;27.08;38.29;101925.53;5053565;28;20584;-65
2022/10/08 09:57:21;;;;;;;4.25;1.00;;;;;;;27.72;37.61;101922.13;5037058;28;20493;-65
2022/10/08 10:00:06;;;;;;;5.75;0.88;;;;;;;27.08;38.17;101925.53;5052866;28;20025;-65
2022/10/08 10:02:36;;;;;;;4.60;0.90;;;;;;;26.79;38.44;101925.91;5036717;28;20068;-64
2022/10/08 10:05:04;;;;;;;4.65;0.60;;;;;;;26.63;38.73;101929.84;5036767;28;20067;-64
2022/10/08 10:07:44;;;;;;;3.10;0.70;;;;;;;26.16;38.54;101920.84;5026098;28;20029;-64
2022/10/08 10:10:27;;;;;;;3.42;0.95;;;;;;;25.75;39.26;101935.34;5016572;28;20060;-64
2022/10/08 10:12:55;;;;;;;3.35;0.73;;;;;;;25.54;38.93;101938.19;5016919;28;20096;-64
2022/10/08 10:15:24;;;;;;;6.25;0.98;;;;;;;25.34;39.29;101938.00;5000402;28;20479;-64
2022/10/08 10:17:53;;;;;;;1.75;0.70;;;;;;;26.20;38.10;101935.84;5016693;28;20014;-65
2022/10/08 10:20:23;;;;;;;3.17;1.05;;;;;;;27.44;36.79;101940.81;5016604;28;20029;-65
2022/10/08 10:23:06;;;;;;;2.20;0.98;;;;;;;28.49;35.02;101943.28;5016535;28;20025;-65
2022/10/08 10:25:55;;;;;;;4.75;1.30;;;;;;;29.32;34.64;101931.09;5000364;28;20478;-65
2022/10/08 10:28:36;;;;;;;8.07;1.42;;;;;;;30.20;34.50;101929.78;5034117;28;20084;-65
2022/10/08 10:31:09;;;;;;;6.63;1.30;;;;;;;30.85;33.93;101941.03;5016413;28;20096;-65
2022/10/08 10:33:40;;;;;;;3.15;1.08;;;;;;;31.36;33.26;101935.72;5016670;28;20068;-65
2022/10/08 10:36:12;;;;;;;7.60;0.98;;;;;;;31.76;32.53;101940.59;5000015;28;20025;-65
2022/10/08 10:38:49;;;;;;;4.95;0.88;;;;;;;31.99;32.52;101951.66;5016390;28;20057;-65
2022/10/08 10:41:36;;;;;;;5.05;0.52;;;;;;;32.36;31.32;101943.91;4999987;28;20025;-65
2022/10/08 10:44:05;;;;;;;3.35;0.60;;;;;;;32.29;32.11;101946.81;5016312;28;20033;-65
2022/10/08 10:46:54;;;;;;;6.75;0.77;;;;;;;32.39;31.47;101952.53;5016127;28;20014;-65
2022/10/08 10:49:27;;;;;;;3.33;0.90;;;;;;;32.79;30.88;101952.53;4999816;28;20056;-65
2022/10/08 10:52:18;;;;;;;2.03;0.52;;;;;;;31.83;31.55;101955.19;5033568;28;20061;-65
2022/10/08 10:54:53;;;;;;;4.72;1.02;;;;;;;32.45;29.89;101951.56;5015969;28;20080;-65
2022/10/08 10:57:24;;;;;;;1.17;0.47;;;;;;;32.76;30.02;101956.66;5016126;28;20063;-65
2022/10/08 11:00:09;;;;;;;2.05;0.47;;;;;;;33.13;29.32;101962.66;5016180;28;20121;-65
2022/10/08 11:02:45;;;;;;;5.88;1.10;;;;;;;33.34;29.03;101955.50;4999869;28;20047;-65
2022/10/08 11:05:17;;;;;;;2.35;0.65;;;;;;;33.67;28.44;101966.63;4999489;28;20390;-65
2022/10/08 11:08:05;;;;;;;2.95;0.52;;;;;;;33.93;29.13;101960.34;4999436;28;20539;-65
2022/10/08 11:10:45;;;;;;;2.60;0.50;;;;;;;34.14;28.43;101960.66;5015626;28;20029;-66
2022/10/08 11:13:28;;;;;;;6.55;0.65;;;;;;;33.76;28.75;101965.09;5033154;28;20045;-65
2022/10/08 11:16:13;;;;;;;3.92;0.60;;;;;;;33.81;29.16;101967.94;5033299;28;20037;-65
2022/10/08 11:18:47;;;;;;;5.55;0.70;;;;;;;32.70;29.47;101965.13;5033373;28;20038;-65
2022/10/08 11:21:24;;;;;;;3.40;0.75;;;;;;;31.81;30.72;101971.19;5033368;28;20421;-66
2022/10/08 11:24:11;;;;;;;4.55;0.63;;;;;;;30.94;30.81;101972.84;5033333;28;20029;-65
2022/10/08 11:27:27;;;;;;;2.25;0.65;;;;;;;31.16;30.17;101962.91;5015564;28;20032;-65
2022/10/08 11:30:05;;;;;;;3.60;0.95;;;;;;;31.87;29.75;101964.69;4937232;29;20035;-63
2022/10/08 11:32:31;;;;;;;3.38;0.93;;;;;;;32.37;28.44;101954.72;4937088;29;20038;-64
2022/10/08 11:35:00;;;;;;;5.28;0.68;;;;;;;32.09;29.04;101957.44;4937134;29;20039;-64
2022/10/08 11:37:33;;;;;;;5.22;0.90;;;;;;;32.13;28.62;101967.00;4937212;29;20027;-64